Time;durP1;ratioP1;P1;durP2;ratioP2;P2;SDS_P1;SDS_P2;PMS_P1;PMS_P2;Temp;Humidity;BMP_temperature;BMP_pressure;BME280_temperature;BME280_humidity;BME280_pressure;Samples;Min_cycle;Max_cycle;Signal;HPM_P1;HPM_P2
2022/10/24 00:01:18;;;;;;;1.80;1.70;;;13.90;97.30;;;;;;4993154;28;20452;-84
2022/10/24 00:03:44;;;;;;;3.53;1.90;;;13.90;97.30;;;;;;4993413;28;20178;-84
2022/10/24 00:06:12;;;;;;;2.50;2.30;;;13.80;97.30;;;;;;4994553;28;20436;-84
2022/10/24 00:08:38;;;;;;;1.20;1.10;;;13.80;97.30;;;;;;4993224;28;20457;-84
2022/10/24 00:11:13;;;;;;;1.50;1.40;;;13.80;97.30;;;;;;4993281;28;20419;-84
2022/10/24 00:13:39;;;;;;;1.27;1.17;;;13.80;97.30;;;;;;4993366;28;20455;-85
2022/10/24 00:18:34;;;;;;;2.37;2.23;;;13.70;97.30;;;;;;5039590;28;20501;-86
2022/10/24 00:21:00;;;;;;;3.87;2.27;;;13.70;97.30;;;;;;5049463;28;20414;-85
2022/10/24 00:23:26;;;;;;;1.73;1.63;;;13.70;97.30;;;;;;5052267;28;20615;-86
2022/10/24 00:25:51;;;;;;;7.63;2.37;;;13.60;97.30;;;;;;5052309;28;20222;-85
2022/10/24 00:28:17;;;;;;;1.50;1.40;;;13.60;97.30;;;;;;5052039;28;20253;-86
2022/10/24 00:30:42;;;;;;;1.93;1.83;;;13.60;97.30;;;;;;5052150;28;20229;-86
2022/10/24 00:33:08;;;;;;;2.13;1.37;;;13.60;97.30;;;;;;5052168;28;20178;-86
2022/10/24 00:35:33;;;;;;;1.73;1.63;;;13.60;97.30;;;;;;5052057;28;20187;-86
2022/10/24 00:37:59;;;;;;;1.87;1.77;;;13.60;97.30;;;;;;5052096;28;20187;-86
2022/10/24 00:40:25;;;;;;;2.90;2.00;;;13.60;97.30;;;;;;5051858;28;20184;-86
2022/10/24 00:42:50;;;;;;;1.43;1.33;;;13.60;97.30;;;;;;5053445;28;20278;-86
2022/10/24 00:45:34;;;;;;;1.50;1.40;;;13.60;97.30;;;;;;5051872;28;20192;-86
2022/10/24 00:48:00;;;;;;;1.70;1.67;;;13.70;97.30;;;;;;5051497;28;20199;-86
2022/10/24 00:50:25;;;;;;;1.20;1.10;;;13.70;97.30;;;;;;5052719;28;20917;-86
2022/10/24 00:52:51;;;;;;;2.33;1.50;;;13.70;97.30;;;;;;5051579;28;20176;-86
2022/10/24 00:55:17;;;;;;;2.70;2.50;;;13.70;97.30;;;;;;5051308;28;20597;-87
2022/10/24 00:57:51;;;;;;;3.27;1.90;;;13.70;97.30;;;;;;5052983;28;20200;-86
2022/10/24 01:00:20;;;;;;;1.47;1.37;;;13.70;97.30;;;;;;5051776;28;20174;-86
2022/10/24 01:02:46;;;;;;;2.30;1.80;;;13.60;97.30;;;;;;5051716;28;20953;-86
2022/10/24 01:05:12;;;;;;;2.10;1.90;;;13.50;97.30;;;;;;5051468;28;20541;-86
2022/10/24 01:08:03;;;;;;;2.70;2.33;;;13.50;97.30;;;;;;5051383;28;20242;-86
2022/10/24 01:10:36;;;;;;;1.90;1.73;;;13.50;97.30;;;;;;5051551;28;20418;-85
2022/10/24 01:13:36;;;;;;;1.87;1.60;;;13.60;97.30;;;;;;5053236;28;20743;-86
2022/10/24 01:16:17;;;;;;;1.50;1.40;;;13.50;97.30;;;;;;5052623;28;20459;-86
2022/10/24 01:19:27;;;;;;;1.83;1.73;;;13.50;97.30;;;;;;5051590;28;20430;-86
2022/10/24 01:21:58;;;;;;;1.10;1.00;;;13.50;97.30;;;;;;5026932;28;20417;-86
2022/10/24 01:24:35;;;;;;;1.90;1.63;;;13.60;97.30;;;;;;5067805;28;20407;-90
2022/10/24 01:27:16;;;;;;;1.67;1.57;;;13.50;97.30;;;;;;5074333;28;20462;-87
2022/10/24 01:30:05;;;;;;;1.80;1.70;;;13.60;97.30;;;;;;5069348;28;20430;-85
2022/10/24 01:32:33;;;;;;;1.53;1.43;;;13.60;97.30;;;;;;5051681;28;20410;-86
2022/10/24 01:35:16;;;;;;;1.50;1.40;;;13.60;97.30;;;;;;5051404;28;20419;-86
2022/10/24 01:37:48;;;;;;;2.77;1.30;;;13.50;97.30;;;;;;5050973;28;20533;-85
2022/10/24 01:40:26;;;;;;;5.83;1.30;;;13.50;97.30;;;;;;5050830;28;20411;-85
2022/10/24 01:42:54;;;;;;;1.70;1.60;;;13.50;97.30;;;;;;5051058;28;20458;-86
2022/10/24 01:45:43;;;;;;;7.50;2.47;;;13.50;97.30;;;;;;5050805;28;20422;-85
2022/10/24 01:48:14;;;;;;;1.90;1.77;;;13.60;97.30;;;;;;5050966;28;20524;-86
2022/10/24 01:50:43;;;;;;;2.17;1.30;;;13.60;97.30;;;;;;5050863;28;20415;-86
2022/10/24 01:53:11;;;;;;;2.73;1.40;;;13.50;97.30;;;;;;5051305;28;20410;-86
2022/10/24 01:55:38;;;;;;;1.37;1.27;;;13.50;97.30;;;;;;5050828;28;20419;-86
2022/10/24 01:58:06;;;;;;;1.10;1.00;;;13.50;97.30;;;;;;5051238;28;20433;-85
2022/10/24 02:00:31;;;;;;;1.30;1.20;;;13.50;97.30;;;;;;5050665;28;20427;-87
2022/10/24 02:03:21;;;;;;;1.40;1.30;;;13.50;97.30;;;;;;5050957;28;20521;-85
2022/10/24 02:05:58;;;;;;;5.30;3.10;;;13.40;97.30;;;;;;5052781;28;20171;-86
2022/10/24 02:08:32;;;;;;;2.50;1.93;;;13.40;97.30;;;;;;5055083;28;20456;-86
2022/10/24 02:11:03;;;;;;;9.87;1.77;;;13.40;97.30;;;;;;5054995;28;20409;-86
2022/10/24 02:13:34;;;;;;;2.30;1.70;;;13.40;97.30;;;;;;5055005;28;20897;-85
2022/10/24 02:16:01;;;;;;;2.20;1.90;;;13.40;97.30;;;;;;5054894;28;20948;-86
2022/10/24 02:18:29;;;;;;;1.93;1.43;;;13.40;97.30;;;;;;5055259;28;20464;-85
2022/10/24 02:21:07;;;;;;;3.00;1.70;;;13.40;97.30;;;;;;5061774;28;20432;-89
2022/10/24 02:23:43;;;;;;;3.13;1.90;;;13.30;97.30;;;;;;5078110;28;20430;-88
2022/10/24 02:26:17;;;;;;;1.70;1.60;;;13.20;97.30;;;;;;5078594;28;20511;-87
2022/10/24 02:28:46;;;;;;;1.20;1.10;;;13.10;97.30;;;;;;5078835;28;20473;-87
2022/10/24 02:31:20;;;;;;;1.50;1.40;;;13.10;97.30;;;;;;5063386;28;20403;-85
2022/10/24 02:33:48;;;;;;;1.93;1.67;;;13.10;97.30;;;;;;5055262;28;20936;-85
2022/10/24 02:36:17;;;;;;;2.00;1.50;;;13.10;97.30;;;;;;5054748;28;21173;-86
2022/10/24 02:38:45;;;;;;;3.13;2.07;;;13.00;97.30;;;;;;5054549;28;20425;-86
2022/10/24 02:41:17;;;;;;;3.33;1.37;;;13.00;97.30;;;;;;5055488;28;20788;-86
2022/10/24 02:43:45;;;;;;;1.73;1.70;;;12.90;97.30;;;;;;5054399;28;20805;-84
2022/10/24 02:46:12;;;;;;;2.50;1.80;;;12.80;97.30;;;;;;5053886;28;20438;-84
2022/10/24 02:48:44;;;;;;;3.77;1.80;;;12.80;97.30;;;;;;5055305;28;20449;-86
2022/10/24 02:51:11;;;;;;;1.23;1.20;;;12.70;97.30;;;;;;5053947;28;20813;-85
2022/10/24 02:53:38;;;;;;;2.50;1.70;;;12.70;97.30;;;;;;5054475;28;20434;-86
2022/10/24 02:56:04;;;;;;;1.57;1.57;;;12.70;97.30;;;;;;5054256;28;20968;-86
2022/10/24 02:58:29;;;;;;;1.40;1.30;;;12.70;97.30;;;;;;5054040;28;20442;-86
2022/10/24 03:00:55;;;;;;;1.63;1.47;;;12.70;97.30;;;;;;5053981;28;20180;-86
2022/10/24 03:03:21;;;;;;;3.13;1.83;;;12.70;97.30;;;;;;5053876;28;20211;-85
2022/10/24 03:05:46;;;;;;;1.13;1.10;;;12.70;97.30;;;;;;5053916;28;20172;-85
2022/10/24 03:08:13;;;;;;;1.30;1.20;;;12.80;97.30;;;;;;5053821;28;20453;-85
2022/10/24 03:10:39;;;;;;;1.70;1.60;;;12.90;97.30;;;;;;5053651;28;20207;-85
2022/10/24 03:13:05;;;;;;;1.27;1.17;;;13.00;97.30;;;;;;5053777;28;20410;-86
2022/10/24 03:15:31;;;;;;;2.03;1.70;;;13.00;97.30;;;;;;5054783;28;20410;-87
2022/10/24 03:17:56;;;;;;;1.47;1.40;;;13.10;97.30;;;;;;5053129;28;20685;-85
2022/10/24 03:20:23;;;;;;;1.67;1.57;;;13.10;97.30;;;;;;5053458;28;20267;-85
2022/10/24 03:22:49;;;;;;;15.87;1.80;;;13.10;97.30;;;;;;5053391;28;20254;-84
2022/10/24 03:25:15;;;;;;;3.97;1.20;;;13.10;97.30;;;;;;5053402;28;20868;-86
2022/10/24 03:27:40;;;;;;;1.17;1.13;;;13.20;97.30;;;;;;5048681;28;20206;-85
2022/10/24 03:30:06;;;;;;;3.27;2.20;;;13.30;97.30;;;;;;5033334;28;20416;-85
2022/10/24 03:32:33;;;;;;;2.30;2.10;;;13.30;97.30;;;;;;5033486;28;20219;-86
2022/10/24 03:34:58;;;;;;;2.70;1.70;;;13.40;97.30;;;;;;5034928;28;20438;-86
2022/10/24 03:37:24;;;;;;;1.67;1.57;;;13.40;97.30;;;;;;5032986;28;20463;-87
2022/10/24 03:39:50;;;;;;;1.43;1.40;;;13.50;97.30;;;;;;5033110;28;20415;-85
2022/10/24 03:42:16;;;;;;;1.57;1.47;;;13.50;97.30;;;;;;5033240;28;20258;-85
2022/10/24 03:44:41;;;;;;;4.50;2.60;;;13.60;97.30;;;;;;5034507;28;20168;-84
2022/10/24 03:47:07;;;;;;;5.83;2.63;;;13.60;97.30;;;;;;5034359;28;20222;-86
2022/10/24 03:49:32;;;;;;;2.70;1.47;;;13.60;97.30;;;;;;5033109;28;20234;-86
2022/10/24 03:51:58;;;;;;;2.67;1.07;;;13.60;97.30;;;;;;5032943;28;20314;-86
2022/10/24 03:54:24;;;;;;;1.10;1.00;;;13.50;97.30;;;;;;5032978;28;20173;-85
2022/10/24 03:56:49;;;;;;;1.37;1.27;;;13.60;97.30;;;;;;5032939;28;20208;-85
2022/10/24 03:59:15;;;;;;;2.27;2.00;;;13.60;97.30;;;;;;5033145;28;20557;-85
2022/10/24 04:01:41;;;;;;;3.63;2.10;;;13.70;97.30;;;;;;5034015;28;20184;-85
2022/10/24 04:04:06;;;;;;;4.10;2.83;;;13.80;97.30;;;;;;5032754;28;20176;-85
2022/10/24 04:06:32;;;;;;;2.17;1.73;;;13.80;97.30;;;;;;5033886;28;20196;-85
2022/10/24 04:08:58;;;;;;;3.53;1.67;;;13.90;97.30;;;;;;5032508;28;20294;-86
2022/10/24 04:11:24;;;;;;;1.97;1.80;;;13.90;97.30;;;;;;5032393;28;20176;-85
2022/10/24 04:13:51;;;;;;;2.80;1.67;;;14.00;97.30;;;;;;5032700;28;20414;-85
2022/10/24 04:16:17;;;;;;;1.37;1.30;;;14.00;97.30;;;;;;5033445;28;20790;-86
2022/10/24 04:18:43;;;;;;;4.97;2.53;;;14.00;97.30;;;;;;5032771;28;20430;-86
2022/10/24 04:21:09;;;;;;;1.37;1.27;;;14.00;97.30;;;;;;5032491;28;20419;-86
2022/10/24 04:23:39;;;;;;;1.87;1.73;;;14.00;97.30;;;;;;5032586;28;20187;-86
2022/10/24 04:26:06;;;;;;;2.27;2.07;;;14.10;97.30;;;;;;5033479;28;20459;-86
2022/10/24 04:28:32;;;;;;;1.37;1.27;;;14.10;97.30;;;;;;5031608;28;20509;-87
2022/10/24 04:30:58;;;;;;;1.17;1.10;;;14.20;97.30;;;;;;5032532;28;20808;-84
2022/10/24 04:33:24;;;;;;;3.17;1.67;;;14.20;97.30;;;;;;5042625;28;20175;-85
2022/10/24 04:36:00;;;;;;;1.90;1.80;;;14.20;97.30;;;;;;5049714;28;20258;-84
2022/10/24 04:38:25;;;;;;;1.00;0.90;;;14.20;97.30;;;;;;5020662;28;20723;-80
2022/10/24 04:40:57;;;;;;;5.47;1.43;;;14.20;97.30;;;;;;5026211;28;20403;-85
2022/10/24 04:43:23;;;;;;;1.30;1.20;;;14.20;97.30;;;;;;5012898;28;20185;-86
2022/10/24 04:45:49;;;;;;;2.00;1.73;;;14.10;97.30;;;;;;5012124;28;20454;-86
2022/10/24 04:48:21;;;;;;;5.07;2.70;;;14.10;97.30;;;;;;5016120;28;20224;-80
2022/10/24 04:50:50;;;;;;;2.70;1.97;;;14.10;97.30;;;;;;5043886;28;20210;-84
2022/10/24 04:53:15;;;;;;;2.00;1.90;;;14.10;97.30;;;;;;5034240;28;20447;-85
2022/10/24 04:55:41;;;;;;;1.50;1.40;;;14.10;97.30;;;;;;5029742;28;20456;-85
2022/10/24 04:58:55;;;;;;;;;;;;;;;;;;;;;
2022/10/24 05:01:23;;;;;;;2.70;1.83;;;14.00;97.30;;;;;;5035558;28;20415;-84
2022/10/24 05:03:49;;;;;;;1.10;1.00;;;13.90;97.30;;;;;;5022277;28;20439;-85
2022/10/24 05:06:47;;;;;;;2.03;1.80;;;13.80;97.30;;;;;;5012739;28;20498;-84
2022/10/24 05:09:16;;;;;;;1.73;1.63;;;13.80;97.30;;;;;;5018263;28;20216;-83
2022/10/24 05:12:08;;;;;;;4.37;1.67;;;13.70;97.30;;;;;;5012678;28;20812;-83
2022/10/24 05:14:36;;;;;;;1.43;1.33;;;13.60;97.30;;;;;;5029092;28;20452;-84
2022/10/24 05:17:05;;;;;;;1.97;1.60;;;13.50;97.30;;;;;;5017421;28;20457;-85
2022/10/24 05:19:31;;;;;;;1.57;1.47;;;13.40;97.30;;;;;;5026918;28;21003;-85
2022/10/24 05:21:56;;;;;;;2.90;2.40;;;13.30;97.30;;;;;;5020916;28;20408;-85
2022/10/24 05:24:25;;;;;;;3.90;1.87;;;13.20;97.30;;;;;;5011018;28;20226;-85
2022/10/24 05:26:50;;;;;;;1.70;1.60;;;13.20;97.30;;;;;;5023150;28;20201;-84
2022/10/24 05:29:16;;;;;;;1.93;1.57;;;13.20;97.30;;;;;;5011386;28;20522;-85
2022/10/24 05:31:42;;;;;;;3.63;2.80;;;13.30;97.30;;;;;;5012800;28;20204;-85
2022/10/24 05:34:10;;;;;;;3.90;1.93;;;13.30;97.30;;;;;;5013616;28;20240;-85
2022/10/24 05:36:36;;;;;;;1.77;1.67;;;13.30;97.30;;;;;;5033144;28;20227;-87
2022/10/24 05:39:04;;;;;;;5.40;2.00;;;13.40;97.30;;;;;;5039943;28;20416;-86
2022/10/24 05:41:31;;;;;;;1.83;1.40;;;13.40;97.30;;;;;;5039807;28;20454;-85
2022/10/24 05:43:57;;;;;;;2.40;1.60;;;13.40;97.30;;;;;;5030813;28;20861;-87
2022/10/24 05:46:30;;;;;;;1.60;1.50;;;13.40;97.30;;;;;;5015860;28;20440;-85
2022/10/24 05:48:56;;;;;;;2.20;1.00;;;13.40;97.30;;;;;;5023803;28;20193;-84
2022/10/24 05:51:22;;;;;;;1.17;1.10;;;13.40;97.30;;;;;;5013238;28;20416;-85
2022/10/24 05:53:47;;;;;;;1.50;1.40;;;13.40;97.30;;;;;;5016773;28;20184;-85
2022/10/24 05:56:15;;;;;;;1.57;1.40;;;13.50;97.30;;;;;;5023162;28;20203;-82
2022/10/24 05:58:40;;;;;;;1.00;1.00;;;13.50;97.30;;;;;;5032140;28;20673;-84
2022/10/24 06:01:06;;;;;;;1.90;1.40;;;13.50;97.30;;;;;;5032038;28;20427;-83
2022/10/24 06:03:32;;;;;;;1.53;1.43;;;13.50;97.30;;;;;;5031900;28;20220;-86
2022/10/24 06:06:01;;;;;;;0.80;0.80;;;13.50;97.30;;;;;;5032055;28;20199;-84
2022/10/24 06:08:27;;;;;;;10.67;1.43;;;13.50;97.30;;;;;;5032177;28;20298;-83
2022/10/24 06:10:52;;;;;;;2.00;1.90;;;13.60;97.30;;;;;;5016791;28;20440;-86
2022/10/24 06:13:18;;;;;;;1.47;1.10;;;13.60;97.30;;;;;;5010279;28;20173;-87
2022/10/24 06:18:19;;;;;;;2.17;2.00;;;13.50;97.30;;;;;;5042380;22;20240;-84
2022/10/24 06:20:44;;;;;;;5.10;1.77;;;13.50;97.30;;;;;;5028649;28;20443;-83
2022/10/24 06:23:10;;;;;;;1.27;1.10;;;13.60;97.30;;;;;;5028634;28;20172;-80
2022/10/24 06:25:36;;;;;;;1.33;1.17;;;13.60;97.30;;;;;;5028458;28;20199;-80
2022/10/24 06:28:01;;;;;;;1.50;1.40;;;13.60;97.30;;;;;;5028946;28;20227;-83
2022/10/24 06:30:27;;;;;;;0.90;0.80;;;13.70;97.30;;;;;;5029787;28;20187;-83
2022/10/24 06:32:52;;;;;;;2.30;2.17;;;13.80;97.30;;;;;;4989951;28;20220;-83
2022/10/24 06:35:18;;;;;;;9.87;2.57;;;13.80;97.30;;;;;;4990239;28;20181;-85
2022/10/24 06:37:44;;;;;;;1.43;1.33;;;13.90;97.30;;;;;;5005005;28;20231;-84
2022/10/24 06:40:10;;;;;;;1.30;1.20;;;13.90;97.30;;;;;;5001283;28;20675;-83
2022/10/24 06:42:35;;;;;;;0.90;0.80;;;13.90;97.30;;;;;;4990315;28;20182;-84
2022/10/24 06:45:01;;;;;;;1.40;1.30;;;13.90;97.30;;;;;;4990016;28;20418;-84
2022/10/24 06:47:27;;;;;;;20.97;2.20;;;14.00;97.30;;;;;;4993259;28;20281;-85
2022/10/24 06:49:52;;;;;;;2.90;1.50;;;14.00;97.30;;;;;;5000944;28;20173;-80
2022/10/24 06:52:18;;;;;;;1.60;1.40;;;14.10;97.30;;;;;;5006060;28;20212;-84
2022/10/24 06:54:43;;;;;;;4.07;3.40;;;14.10;97.30;;;;;;5005526;28;20174;-84
2022/10/24 06:57:09;;;;;;;8.63;2.80;;;14.10;97.30;;;;;;5008524;28;20193;-83
2022/10/24 06:59:34;;;;;;;1.60;1.50;;;14.20;97.30;;;;;;5006749;28;20184;-84
2022/10/24 07:02:00;;;;;;;1.30;1.20;;;14.30;97.30;;;;;;5005421;28;20725;-84
2022/10/24 07:04:26;;;;;;;1.63;1.60;;;14.30;97.30;;;;;;4994495;28;20220;-83
2022/10/24 07:06:52;;;;;;;5.67;1.73;;;14.40;97.30;;;;;;4995924;28;20201;-83
2022/10/24 07:09:17;;;;;;;14.10;1.10;;;14.50;97.30;;;;;;5002835;28;20498;-85
2022/10/24 07:11:43;;;;;;;1.60;1.57;;;14.50;97.30;;;;;;4997308;28;20225;-81
2022/10/24 07:14:10;;;;;;;1.37;1.27;;;14.60;97.30;;;;;;4998566;28;20644;-80
2022/10/24 07:16:36;;;;;;;1.10;1.10;;;14.70;97.30;;;;;;4996606;28;20471;-80
2022/10/24 07:19:03;;;;;;;1.60;1.50;;;14.80;97.30;;;;;;5005529;28;20436;-81
2022/10/24 07:21:31;;;;;;;1.90;1.60;;;14.90;97.30;;;;;;4994293;28;20427;-84
2022/10/24 07:23:57;;;;;;;3.57;3.07;;;15.00;97.30;;;;;;5002190;28;20424;-84
2022/10/24 07:26:25;;;;;;;1.67;1.57;;;15.10;97.30;;;;;;4994102;28;20800;-84
2022/10/24 07:28:54;;;;;;;1.50;1.50;;;15.30;97.30;;;;;;5002303;28;20491;-85
2022/10/24 07:31:23;;;;;;;2.13;1.97;;;15.40;97.30;;;;;;4996505;28;20786;-84
2022/10/24 07:33:50;;;;;;;3.33;1.67;;;15.50;97.30;;;;;;5010552;28;20419;-85
2022/10/24 07:36:22;;;;;;;3.37;3.17;;;15.60;97.30;;;;;;5000662;28;20461;-85
2022/10/24 07:38:50;;;;;;;1.77;1.20;;;15.60;97.30;;;;;;5006291;28;20722;-85
2022/10/24 07:41:15;;;;;;;1.30;1.20;;;15.70;97.30;;;;;;5011669;28;20423;-84
2022/10/24 07:43:41;;;;;;;1.30;1.13;;;15.70;97.30;;;;;;5011665;28;20424;-85
2022/10/24 07:46:08;;;;;;;1.37;1.27;;;15.80;97.30;;;;;;5011552;28;20659;-84
2022/10/24 07:48:35;;;;;;;4.53;2.03;;;15.80;97.30;;;;;;5012716;28;20209;-85
2022/10/24 07:51:05;;;;;;;1.33;1.23;;;15.90;97.30;;;;;;5012910;28;20404;-84
2022/10/24 07:53:31;;;;;;;2.37;1.20;;;15.90;97.30;;;;;;5011467;28;20491;-85
2022/10/24 07:55:57;;;;;;;1.73;1.50;;;15.90;97.30;;;;;;5013157;28;20506;-84
2022/10/24 07:58:23;;;;;;;1.00;1.00;;;15.90;97.30;;;;;;5011398;28;20189;-84
2022/10/24 08:00:48;;;;;;;1.37;1.13;;;16.00;97.30;;;;;;5005926;28;20420;-86
2022/10/24 08:03:14;;;;;;;1.43;1.33;;;16.00;97.30;;;;;;4999289;28;20177;-85
2022/10/24 08:05:40;;;;;;;5.03;1.33;;;16.00;97.30;;;;;;5001922;28;20191;-86
2022/10/24 08:08:06;;;;;;;1.27;1.27;;;16.00;97.30;;;;;;5003030;28;20194;-85
2022/10/24 08:10:32;;;;;;;1.33;1.20;;;16.00;97.30;;;;;;5000313;28;20423;-86
2022/10/24 08:12:58;;;;;;;1.60;1.50;;;16.10;97.30;;;;;;4993247;28;20200;-85
2022/10/24 08:15:26;;;;;;;1.43;1.20;;;16.10;97.30;;;;;;4993721;28;20412;-86
2022/10/24 08:17:52;;;;;;;1.10;1.00;;;16.10;97.30;;;;;;5012529;28;20225;-85
2022/10/24 08:20:18;;;;;;;2.90;2.70;;;16.20;97.30;;;;;;5011126;28;20495;-85
2022/10/24 08:22:44;;;;;;;1.83;1.73;;;16.20;97.30;;;;;;5012839;28;20422;-86
2022/10/24 08:25:10;;;;;;;1.40;1.30;;;16.20;97.30;;;;;;5012745;28;20679;-86
2022/10/24 08:27:36;;;;;;;2.50;1.53;;;16.20;97.30;;;;;;5011132;28;20503;-85
2022/10/24 08:30:03;;;;;;;2.40;1.43;;;16.30;97.30;;;;;;5012562;28;20926;-86
2022/10/24 08:32:28;;;;;;;11.50;1.93;;;16.30;97.30;;;;;;5010942;28;20174;-86
2022/10/24 08:34:54;;;;;;;1.10;1.00;;;16.30;97.30;;;;;;4993691;28;20428;-84
2022/10/24 08:37:19;;;;;;;43.50;3.00;;;16.40;97.30;;;;;;4992002;28;20217;-85
2022/10/24 08:39:45;;;;;;;2.30;1.20;;;16.40;97.30;;;;;;5007652;28;20181;-84
2022/10/24 08:42:14;;;;;;;6.03;1.37;;;16.50;97.30;;;;;;4992364;28;20636;-85
2022/10/24 08:44:42;;;;;;;3.63;1.33;;;16.50;97.30;;;;;;4991405;28;20268;-85
2022/10/24 08:47:26;;;;;;;1.97;1.87;;;16.60;97.30;;;;;;4993393;28;20449;-85
2022/10/24 08:50:29;;;;;;;2.77;1.27;;;16.70;97.30;;;;;;5006848;28;20494;-85
2022/10/24 08:53:01;;;;;;;3.70;1.23;;;16.80;97.30;;;;;;4997034;28;20426;-85
2022/10/24 08:55:52;;;;;;;1.20;1.13;;;16.80;97.30;;;;;;4995656;28;20421;-87
2022/10/24 08:58:23;;;;;;;5.00;2.93;;;16.90;97.30;;;;;;4984334;28;20485;-86
2022/10/24 09:00:52;;;;;;;2.83;1.47;;;17.00;97.30;;;;;;4994428;28;20428;-85
2022/10/24 09:03:29;;;;;;;1.10;1.00;;;17.00;97.30;;;;;;5000567;28;20425;-84
2022/10/24 09:06:05;;;;;;;2.30;1.90;;;17.00;97.30;;;;;;4992645;28;20420;-86
2022/10/24 09:08:45;;;;;;;2.73;1.63;;;17.10;97.30;;;;;;4993171;28;20446;-87
2022/10/24 09:11:20;;;;;;;2.60;1.37;;;17.10;97.30;;;;;;5016175;28;20759;-84
2022/10/24 09:13:46;;;;;;;1.53;1.53;;;17.10;97.30;;;;;;5010643;28;21005;-84
2022/10/24 09:16:17;;;;;;;10.03;1.27;;;17.20;97.30;;;;;;5009255;28;20511;-84
2022/10/24 09:18:45;;;;;;;0.93;0.87;;;17.20;97.30;;;;;;5010230;28;20184;-83
2022/10/24 09:21:13;;;;;;;1.23;1.13;;;17.20;97.30;;;;;;5009694;28;20431;-86
2022/10/24 09:23:39;;;;;;;2.70;2.03;;;17.20;97.30;;;;;;5010238;28;20420;-84
2022/10/24 09:26:11;;;;;;;1.07;1.03;;;17.20;97.30;;;;;;5009809;28;20846;-84
2022/10/24 09:28:38;;;;;;;2.40;1.50;;;17.20;97.30;;;;;;5009847;28;20466;-84
2022/10/24 09:31:15;;;;;;;6.60;1.97;;;17.20;97.30;;;;;;5009991;28;20426;-84
2022/10/24 09:33:43;;;;;;;2.10;1.87;;;17.20;97.30;;;;;;5009833;28;20411;-84
2022/10/24 09:36:11;;;;;;;1.73;1.20;;;17.30;97.30;;;;;;5009673;28;20404;-87
2022/10/24 09:38:39;;;;;;;1.20;1.10;;;17.30;97.30;;;;;;5009980;28;20486;-86
2022/10/24 09:41:12;;;;;;;1.07;0.97;;;17.30;97.30;;;;;;5009769;28;20452;-85
2022/10/24 09:43:53;;;;;;;2.67;1.33;;;17.40;97.30;;;;;;5009885;28;20733;-86
2022/10/24 09:46:35;;;;;;;1.60;1.53;;;17.40;97.30;;;;;;5010565;28;20946;-87
2022/10/24 09:49:17;;;;;;;2.13;1.20;;;17.40;97.30;;;;;;5011158;28;20487;-86
2022/10/24 09:51:49;;;;;;;1.73;1.63;;;17.40;97.30;;;;;;5009674;28;20431;-85
2022/10/24 09:54:18;;;;;;;3.90;2.03;;;17.50;97.30;;;;;;5009875;28;20426;-85
2022/10/24 09:56:52;;;;;;;1.23;1.20;;;17.50;97.30;;;;;;5009667;28;20432;-85
2022/10/24 09:59:36;;;;;;;3.60;2.73;;;17.50;97.30;;;;;;5011325;28;20439;-85
2022/10/24 10:02:33;;;;;;;1.43;1.37;;;17.50;97.30;;;;;;5009818;28;20451;-86
2022/10/24 10:05:01;;;;;;;3.07;1.87;;;17.60;97.30;;;;;;4989988;28;20792;-86
2022/10/24 10:07:30;;;;;;;6.10;2.00;;;17.60;97.30;;;;;;5009395;28;20980;-87
2022/10/24 10:09:58;;;;;;;2.13;1.67;;;17.60;97.30;;;;;;5009629;28;20436;-86
2022/10/24 10:12:31;;;;;;;1.73;1.63;;;17.70;97.30;;;;;;5009463;28;20832;-87
2022/10/24 10:14:59;;;;;;;3.90;2.43;;;17.70;97.30;;;;;;5009300;28;20425;-86
2022/10/24 10:17:27;;;;;;;1.17;1.13;;;17.70;97.30;;;;;;4990781;28;20515;-85
2022/10/24 10:19:56;;;;;;;1.73;1.50;;;17.70;97.30;;;;;;4990191;28;20483;-85
2022/10/24 10:22:28;;;;;;;1.43;1.33;;;17.70;97.30;;;;;;4990120;28;20429;-85
2022/10/24 10:24:55;;;;;;;6.83;2.40;;;17.70;97.30;;;;;;4990910;28;20841;-86
2022/10/24 10:27:26;;;;;;;1.47;1.37;;;17.80;97.30;;;;;;4992876;28;20437;-86
2022/10/24 10:30:10;;;;;;;0.90;0.80;;;17.70;97.30;;;;;;4993321;28;20931;-85
2022/10/24 10:32:45;;;;;;;1.47;1.37;;;17.80;97.30;;;;;;4993638;28;20425;-86
2022/10/24 10:35:51;;;;;;;2.77;1.80;;;17.80;97.30;;;;;;4993565;28;20436;-86
2022/10/24 10:38:35;;;;;;;2.10;1.50;;;17.80;97.30;;;;;;4993303;28;20437;-86
2022/10/24 10:41:17;;;;;;;7.37;2.03;;;17.80;97.30;;;;;;4994812;28;20420;-86
2022/10/24 10:43:58;;;;;;;3.17;1.83;;;17.70;97.30;;;;;;4993703;28;20847;-85
2022/10/24 10:46:52;;;;;;;2.07;1.77;;;17.70;97.30;;;;;;4993589;28;20452;-86
2022/10/24 10:49:24;;;;;;;2.53;1.60;;;17.70;97.30;;;;;;4993280;28;20534;-86
2022/10/24 10:51:57;;;;;;;9.13;2.07;;;17.70;97.30;;;;;;4993202;28;20452;-86
2022/10/24 10:54:41;;;;;;;11.13;1.00;;;17.80;97.30;;;;;;4993213;28;20420;-85
2022/10/24 10:57:15;;;;;;;2.13;1.60;;;17.80;97.30;;;;;;4992961;28;20735;-85
2022/10/24 10:59:46;;;;;;;2.80;1.57;;;17.80;97.30;;;;;;4993108;28;20429;-85
2022/10/24 11:02:33;;;;;;;3.77;1.47;;;17.80;97.30;;;;;;4993203;28;20416;-84
2022/10/24 11:05:15;;;;;;;2.50;1.63;;;17.80;97.30;;;;;;4993119;28;20969;-85
2022/10/24 11:08:06;;;;;;;1.40;1.30;;;17.80;97.30;;;;;;4992857;28;20519;-85
2022/10/24 11:10:42;;;;;;;1.40;1.40;;;17.80;97.30;;;;;;4992563;28;20421;-84
2022/10/24 11:13:18;;;;;;;1.90;1.40;;;17.80;97.30;;;;;;4992944;28;20417;-85
2022/10/24 11:15:48;;;;;;;2.60;1.73;;;17.80;97.30;;;;;;4997105;28;20941;-84
2022/10/24 11:18:28;;;;;;;1.43;1.27;;;17.80;97.30;;;;;;5012148;28;20895;-84
2022/10/24 11:21:04;;;;;;;3.80;1.80;;;17.90;97.30;;;;;;5012127;28;20443;-84
2022/10/24 11:23:51;;;;;;;3.10;1.37;;;17.80;97.30;;;;;;5012250;28;20420;-84
2022/10/24 11:26:19;;;;;;;1.30;0.90;;;17.80;97.30;;;;;;5011806;28;20951;-84
2022/10/24 11:28:53;;;;;;;2.60;1.40;;;17.90;97.30;;;;;;5013431;28;20490;-84
2022/10/24 11:31:22;;;;;;;2.13;1.67;;;17.80;97.30;;;;;;5012096;28;20411;-85
2022/10/24 11:33:55;;;;;;;0.90;0.87;;;17.80;97.30;;;;;;5013916;28;20440;-85
2022/10/24 11:36:37;;;;;;;1.30;1.20;;;17.80;97.30;;;;;;5011857;28;20424;-85
2022/10/24 11:39:16;;;;;;;4.00;2.00;;;17.80;97.30;;;;;;5012029;28;20424;-85
2022/10/24 11:41:59;;;;;;;1.40;1.30;;;17.90;97.30;;;;;;5012907;28;20415;-84
2022/10/24 11:44:39;;;;;;;4.37;2.30;;;17.90;97.30;;;;;;5012061;28;20424;-85
2022/10/24 11:47:24;;;;;;;1.20;1.10;;;17.90;97.30;;;;;;5011907;28;20546;-84
2022/10/24 11:50:15;;;;;;;3.23;1.53;;;17.90;97.30;;;;;;5013463;28;20487;-84
2022/10/24 11:52:45;;;;;;;2.07;1.43;;;17.90;97.30;;;;;;5002622;28;20412;-85
2022/10/24 11:55:22;;;;;;;5.20;2.90;;;17.90;97.30;;;;;;5011660;28;20423;-85
2022/10/24 11:57:53;;;;;;;1.53;1.37;;;18.00;97.30;;;;;;5011787;28;20436;-85
2022/10/24 12:00:23;;;;;;;1.50;1.40;;;18.00;97.30;;;;;;5011722;28;20649;-84
2022/10/24 12:03:20;;;;;;;1.13;1.03;;;18.00;97.30;;;;;;5011316;28;20416;-85
2022/10/24 12:06:15;;;;;;;2.50;1.63;;;18.10;97.30;;;;;;5011315;28;20923;-85
2022/10/24 12:08:52;;;;;;;1.37;1.27;;;18.10;97.30;;;;;;4974600;28;20547;-85
2022/10/24 12:11:31;;;;;;;2.83;1.67;;;18.10;97.30;;;;;;5012710;28;20712;-86
2022/10/24 12:14:18;;;;;;;1.97;1.00;;;18.10;97.30;;;;;;5011533;28;20417;-85
2022/10/24 12:19:16;;;;;;;1.23;1.13;;;18.20;97.30;;;;;;5026987;28;20499;-85
2022/10/24 12:21:51;;;;;;;3.17;2.50;;;18.30;97.30;;;;;;5011393;28;20886;-85
2022/10/24 12:24:31;;;;;;;1.13;1.13;;;18.30;97.30;;;;;;5011326;28;20412;-87
2022/10/24 12:27:03;;;;;;;7.60;2.93;;;18.40;97.30;;;;;;5010780;28;20486;-87
2022/10/24 12:29:32;;;;;;;4.60;1.80;;;18.50;97.30;;;;;;5011085;28;20460;-85
2022/10/24 12:32:33;;;;;;;3.87;1.80;;;18.50;97.30;;;;;;5011099;28;20420;-86
2022/10/24 12:35:01;;;;;;;1.27;1.17;;;18.50;97.30;;;;;;4954383;28;20827;-85
2022/10/24 12:37:39;;;;;;;1.00;0.90;;;18.60;97.30;;;;;;5015363;28;20443;-86
2022/10/24 12:40:51;;;;;;;1.73;1.63;;;18.60;97.30;;;;;;5011100;28;20416;-85
2022/10/24 12:43:50;;;;;;;1.10;1.00;;;18.60;97.30;;;;;;5010958;28;20499;-85
2022/10/24 12:46:22;;;;;;;0.90;0.80;;;18.60;97.30;;;;;;5011061;28;20416;-86
2022/10/24 12:49:28;;;;;;;3.47;1.57;;;18.70;97.30;;;;;;5009991;28;20500;-87
2022/10/24 12:55:36;;;;;;;1.73;1.67;;;18.70;97.30;;;;;;4950638;29;20449;-87
2022/10/24 13:01:32;;;;;;;1.20;1.10;;;18.70;97.30;;;;;;4999291;28;20671;-89
2022/10/24 13:04:28;;;;;;;1.53;0.90;;;18.70;97.30;;;;;;5010737;28;20466;-86
2022/10/24 13:07:28;;;;;;;1.33;1.30;;;18.70;97.30;;;;;;5010593;28;20970;-86
2022/10/24 13:10:18;;;;;;;3.40;1.50;;;18.70;97.30;;;;;;4971244;28;20465;-88
2022/10/24 13:13:19;;;;;;;1.20;1.10;;;18.70;97.30;;;;;;5019881;28;20455;-89
2022/10/24 13:16:17;;;;;;;1.30;1.00;;;18.60;97.30;;;;;;5034077;28;20412;-90
2022/10/24 13:19:18;;;;;;;1.30;1.20;;;18.60;97.30;;;;;;5031286;28;20463;-88
2022/10/24 13:24:48;;;;;;;3.47;2.63;;;18.50;97.30;;;;;;5007518;28;20424;-85
2022/10/24 13:27:37;;;;;;;1.10;1.00;;;18.50;97.30;;;;;;5010669;28;20477;-86
2022/10/24 13:30:24;;;;;;;2.17;1.33;;;18.50;97.30;;;;;;4953539;28;20190;-85